Time;durP1;ratioP1;P1;durP2;ratioP2;P2;SDS_P1;SDS_P2;PMS_P1;PMS_P2;Temp;Humidity;BMP_temperature;BMP_pressure;BME280_temperature;BME280_humidity;BME280_pressure;Samples;Min_cycle;Max_cycle;Signal;HPM_P1;HPM_P2
2021/03/25 00:00:27;;;;;;;20.33;13.88;;;;;;;;;;4995741;28;20270;-85
2021/03/25 00:02:55;;;;;;;17.30;11.45;;;;;;;;;;4991554;28;20234;-85
2021/03/25 00:05:24;;;;;;;14.40;10.98;;;;;;;;;;4996140;28;20203;-85
2021/03/25 00:07:51;;;;;;;17.15;13.07;;;;;;;;;;4996367;28;20259;-84
2021/03/25 00:10:25;;;;;;;19.80;11.73;;;;;;;;;;4995509;28;20295;-84
2021/03/25 00:12:52;;;;;;;14.95;10.73;;;;;;;;;;4996646;28;20673;-84
2021/03/25 00:15:20;;;;;;;20.25;11.40;;;;;;;;;;4996371;28;20215;-85
2021/03/25 00:17:47;;;;;;;14.63;12.32;;;;;;;;;;4996166;28;20223;-84
2021/03/25 00:20:16;;;;;;;18.30;12.65;;;;;;;;;;4996897;28;20192;-85
2021/03/25 00:22:43;;;;;;;20.52;13.35;;;;;;;;;;4996596;28;20184;-85
2021/03/25 00:25:15;;;;;;;16.90;11.95;;;;;;;;;;4995680;28;20192;-85
2021/03/25 00:27:43;;;;;;;16.85;11.73;;;;;;;;;;4995528;28;20226;-85
2021/03/25 00:30:14;;;;;;;17.38;13.13;;;;;;;;;;4996219;28;20276;-85
2021/03/25 00:32:43;;;;;;;20.25;12.32;;;;;;;;;;4995508;28;20198;-85
2021/03/25 00:35:13;;;;;;;18.85;12.77;;;;;;;;;;4995436;28;20698;-85
2021/03/25 00:37:41;;;;;;;19.67;12.65;;;;;;;;;;4992859;28;20243;-84
2021/03/25 00:40:11;;;;;;;18.33;12.35;;;;;;;;;;4996436;28;20200;-84
2021/03/25 00:42:39;;;;;;;22.85;14.35;;;;;;;;;;4994988;28;20204;-85
2021/03/25 00:45:12;;;;;;;20.23;14.07;;;;;;;;;;4995197;28;20629;-85
2021/03/25 00:47:39;;;;;;;18.63;12.52;;;;;;;;;;4995812;28;20288;-85
2021/03/25 00:50:08;;;;;;;19.67;13.43;;;;;;;;;;4997664;28;20279;-85
2021/03/25 00:52:36;;;;;;;17.75;12.05;;;;;;;;;;4999553;28;20184;-85
2021/03/25 00:55:03;;;;;;;19.20;12.50;;;;;;;;;;4998656;28;20200;-85
2021/03/25 00:57:31;;;;;;;18.88;11.82;;;;;;;;;;4999208;28;20302;-84
2021/03/25 00:59:58;;;;;;;16.55;11.23;;;;;;;;;;4999451;28;20271;-84
2021/03/25 01:02:26;;;;;;;14.90;11.18;;;;;;;;;;4998994;28;20267;-83
2021/03/25 01:04:53;;;;;;;14.95;11.15;;;;;;;;;;4999184;28;20212;-84
2021/03/25 01:07:25;;;;;;;15.77;11.85;;;;;;;;;;4998980;28;20296;-85
2021/03/25 01:09:52;;;;;;;19.70;12.73;;;;;;;;;;4999329;28;20407;-84
2021/03/25 01:12:19;;;;;;;23.05;10.70;;;;;;;;;;4998936;28;20180;-84
2021/03/25 01:14:46;;;;;;;15.73;10.88;;;;;;;;;;4999276;28;20650;-84
2021/03/25 01:17:14;;;;;;;16.33;12.13;;;;;;;;;;4998413;28;20266;-84
2021/03/25 01:19:42;;;;;;;14.45;10.90;;;;;;;;;;4998622;28;20203;-85
2021/03/25 01:22:09;;;;;;;15.30;10.73;;;;;;;;;;4998790;28;20745;-84
2021/03/25 01:24:36;;;;;;;15.07;10.55;;;;;;;;;;5000193;28;20235;-84
2021/03/25 01:27:04;;;;;;;16.45;10.30;;;;;;;;;;4999232;28;20302;-85
2021/03/25 01:29:31;;;;;;;16.65;11.00;;;;;;;;;;5000580;28;20620;-85
2021/03/25 01:31:58;;;;;;;19.70;12.20;;;;;;;;;;5000595;28;20242;-85
2021/03/25 01:34:25;;;;;;;16.30;12.13;;;;;;;;;;5001556;28;20180;-85
2021/03/25 01:36:53;;;;;;;21.40;12.48;;;;;;;;;;4999984;28;20210;-85
2021/03/25 01:39:20;;;;;;;18.77;12.43;;;;;;;;;;4999610;28;20206;-85
2021/03/25 01:41:48;;;;;;;18.52;13.02;;;;;;;;;;5001503;28;20194;-85
2021/03/25 01:44:37;;;;;;;20.17;13.50;;;;;;;;;;5000365;28;20642;-85
2021/03/25 01:47:20;;;;;;;20.88;13.80;;;;;;;;;;4999382;28;20765;-86
2021/03/25 01:49:48;;;;;;;21.33;14.27;;;;;;;;;;4959105;29;20274;-85
2021/03/25 01:52:50;;;;;;;17.63;13.48;;;;;;;;;;4958666;29;20291;-85
2021/03/25 01:55:45;;;;;;;20.45;13.30;;;;;;;;;;4953406;28;20196;-85
2021/03/25 01:59:10;;;;;;;17.52;12.93;;;;;;;;;;4956977;29;20654;-85
2021/03/25 02:01:42;;;;;;;20.85;14.15;;;;;;;;;;4956005;28;20749;-85
2021/03/25 02:04:21;;;;;;;24.08;14.07;;;;;;;;;;4956580;29;20700;-85
2021/03/25 02:06:58;;;;;;;20.25;13.43;;;;;;;;;;4955453;29;20189;-85
2021/03/25 02:09:41;;;;;;;17.88;12.43;;;;;;;;;;4956166;29;20224;-84
2021/03/25 02:12:14;;;;;;;14.82;10.57;;;;;;;;;;4958823;29;20224;-85
2021/03/25 02:14:48;;;;;;;16.60;12.20;;;;;;;;;;4955859;29;20284;-84
2021/03/25 02:17:19;;;;;;;14.80;10.85;;;;;;;;;;4956030;29;20341;-84
2021/03/25 02:20:25;;;;;;;14.55;9.38;;;;;;;;;;4955927;29;20267;-85
2021/03/25 02:23:47;;;;;;;15.23;9.88;;;;;;;;;;4955768;29;20221;-85
2021/03/25 02:26:21;;;;;;;14.35;9.02;;;;;;;;;;4894800;29;20698;-85
2021/03/25 02:29:05;;;;;;;13.15;9.18;;;;;;;;;;4995568;28;20254;-84
2021/03/25 02:31:37;;;;;;;15.68;9.38;;;;;;;;;;4996664;28;20286;-85
2021/03/25 02:34:09;;;;;;;14.95;10.73;;;;;;;;;;4996428;28;20295;-84
2021/03/25 02:36:41;;;;;;;16.60;10.77;;;;;;;;;;4996077;28;20658;-84
2021/03/25 02:39:11;;;;;;;15.68;10.75;;;;;;;;;;4997301;28;20295;-84
2021/03/25 02:41:43;;;;;;;16.40;10.80;;;;;;;;;;4996292;28;20737;-85
2021/03/25 02:44:13;;;;;;;15.38;10.60;;;;;;;;;;4996501;28;20773;-84
2021/03/25 02:46:46;;;;;;;14.15;10.50;;;;;;;;;;4995815;28;20267;-85
2021/03/25 02:49:15;;;;;;;19.25;11.77;;;;;;;;;;4996708;28;20667;-85
2021/03/25 02:51:48;;;;;;;15.70;11.25;;;;;;;;;;4996855;28;20192;-85
2021/03/25 02:54:15;;;;;;;17.63;12.00;;;;;;;;;;4997644;28;20184;-85
2021/03/25 02:56:47;;;;;;;16.95;11.25;;;;;;;;;;4997150;28;20207;-85
2021/03/25 02:59:22;;;;;;;15.90;11.68;;;;;;;;;;4997020;28;20188;-85
2021/03/25 03:01:54;;;;;;;17.80;10.88;;;;;;;;;;4996517;28;20215;-84
2021/03/25 03:04:24;;;;;;;14.32;10.60;;;;;;;;;;4996219;28;20212;-85
2021/03/25 03:06:55;;;;;;;14.95;10.23;;;;;;;;;;4995336;28;20342;-85
2021/03/25 03:09:25;;;;;;;17.20;10.13;;;;;;;;;;4996688;28;20677;-85
2021/03/25 03:11:56;;;;;;;17.48;9.73;;;;;;;;;;4994927;28;20255;-86
2021/03/25 03:14:29;;;;;;;15.88;10.23;;;;;;;;;;4995862;28;20286;-85
2021/03/25 03:17:03;;;;;;;13.13;9.63;;;;;;;;;;4995709;28;20262;-84
2021/03/25 03:19:35;;;;;;;14.18;9.07;;;;;;;;;;5016865;23;20322;-86
2021/03/25 03:22:05;;;;;;;12.07;8.20;;;;;;;;;;4992366;28;20245;-85
2021/03/25 03:24:33;;;;;;;12.77;9.20;;;;;;;;;;4992611;28;20235;-85
2021/03/25 03:27:04;;;;;;;12.52;9.25;;;;;;;;;;4992312;28;20202;-85
2021/03/25 03:29:32;;;;;;;20.95;10.13;;;;;;;;;;4998349;28;20309;-85
2021/03/25 03:32:08;;;;;;;14.38;10.32;;;;;;;;;;5012338;28;20211;-86
2021/03/25 03:34:40;;;;;;;12.57;8.52;;;;;;;;;;5012268;28;20198;-86
2021/03/25 03:37:12;;;;;;;13.18;9.05;;;;;;;;;;5010926;28;20207;-85
2021/03/25 03:39:40;;;;;;;16.92;9.35;;;;;;;;;;5012050;28;20238;-85
2021/03/25 03:42:14;;;;;;;12.82;8.93;;;;;;;;;;5013009;28;20215;-85
2021/03/25 03:44:43;;;;;;;11.85;9.27;;;;;;;;;;5011580;28;20207;-85
2021/03/25 03:47:12;;;;;;;14.40;9.50;;;;;;;;;;5011903;28;20262;-85
2021/03/25 03:49:43;;;;;;;15.00;9.93;;;;;;;;;;5011225;28;20230;-85
2021/03/25 03:52:15;;;;;;;14.27;8.85;;;;;;;;;;5010582;28;20179;-85
2021/03/25 03:54:44;;;;;;;15.40;9.88;;;;;;;;;;5010837;28;20187;-85
2021/03/25 03:57:17;;;;;;;12.27;8.43;;;;;;;;;;5010175;28;20238;-84
2021/03/25 03:59:49;;;;;;;16.45;11.13;;;;;;;;;;5010825;28;20588;-85
2021/03/25 04:02:27;;;;;;;15.57;10.10;;;;;;;;;;5011096;28;20275;-85
2021/03/25 04:05:03;;;;;;;13.55;8.75;;;;;;;;;;5010428;28;20307;-85
2021/03/25 04:07:33;;;;;;;15.70;9.63;;;;;;;;;;5010482;28;20187;-85
2021/03/25 04:10:10;;;;;;;12.60;9.40;;;;;;;;;;5011222;28;20223;-86
2021/03/25 04:12:40;;;;;;;14.27;10.30;;;;;;;;;;5010430;28;20187;-85
2021/03/25 04:15:14;;;;;;;13.68;9.70;;;;;;;;;;5011544;28;20242;-86
2021/03/25 04:17:45;;;;;;;10.90;9.55;;;;;;;;;;5011498;28;20265;-85
2021/03/25 04:20:19;;;;;;;13.77;8.80;;;;;;;;;;5011723;28;20724;-86
2021/03/25 04:22:51;;;;;;;16.98;9.80;;;;;;;;;;5012750;28;20275;-85
2021/03/25 04:25:25;;;;;;;13.77;9.35;;;;;;;;;;5016455;28;20234;-86
2021/03/25 04:27:57;;;;;;;17.70;11.40;;;;;;;;;;5015835;28;20246;-86
2021/03/25 04:30:28;;;;;;;14.85;10.77;;;;;;;;;;5015521;28;20215;-85
2021/03/25 04:32:56;;;;;;;13.02;9.95;;;;;;;;;;5015847;28;20199;-86
2021/03/25 04:35:24;;;;;;;13.82;9.85;;;;;;;;;;5016668;28;20270;-86
2021/03/25 04:37:52;;;;;;;13.80;9.32;;;;;;;;;;5016427;28;20187;-85
2021/03/25 04:40:31;;;;;;;13.95;9.07;;;;;;;;;;5015985;28;20211;-85
2021/03/25 04:42:59;;;;;;;16.02;10.90;;;;;;;;;;5015995;28;20559;-85
2021/03/25 04:45:29;;;;;;;18.55;9.73;;;;;;;;;;5015975;28;20243;-86
2021/03/25 04:48:01;;;;;;;19.27;11.20;;;;;;;;;;5015860;28;20206;-86
2021/03/25 04:50:32;;;;;;;17.42;9.68;;;;;;;;;;5016650;28;20238;-86
2021/03/25 04:53:06;;;;;;;14.57;10.95;;;;;;;;;;5016713;28;20266;-87
2021/03/25 04:55:36;;;;;;;15.38;9.60;;;;;;;;;;5019856;28;20207;-85
2021/03/25 04:58:07;;;;;;;12.70;9.55;;;;;;;;;;5019568;28;20274;-85
2021/03/25 05:00:37;;;;;;;16.67;10.13;;;;;;;;;;5019558;28;20223;-87
2021/03/25 05:03:08;;;;;;;16.95;10.25;;;;;;;;;;5019822;28;20278;-86
2021/03/25 05:05:35;;;;;;;14.43;9.50;;;;;;;;;;5019494;28;20271;-87
2021/03/25 05:08:07;;;;;;;16.15;11.18;;;;;;;;;;5018675;28;20199;-86
2021/03/25 05:10:40;;;;;;;14.95;9.90;;;;;;;;;;5019238;28;20603;-86
2021/03/25 05:13:21;;;;;;;13.90;10.27;;;;;;;;;;5019717;28;20274;-86
2021/03/25 05:15:48;;;;;;;15.50;10.98;;;;;;;;;;5019230;28;20183;-86
2021/03/25 05:18:23;;;;;;;18.80;11.02;;;;;;;;;;5019790;28;20245;-86
2021/03/25 05:20:57;;;;;;;16.60;11.55;;;;;;;;;;5019768;28;20297;-87
2021/03/25 05:23:28;;;;;;;24.23;13.30;;;;;;;;;;5020875;28;20273;-85
2021/03/25 05:26:00;;;;;;;17.45;11.00;;;;;;;;;;5021254;28;20217;-86
2021/03/25 05:28:34;;;;;;;17.17;11.60;;;;;;;;;;5021612;28;20286;-88
2021/03/25 05:31:02;;;;;;;19.65;11.65;;;;;;;;;;5021475;28;20245;-87
2021/03/25 05:33:32;;;;;;;19.33;11.70;;;;;;;;;;5021800;28;20341;-86
2021/03/25 05:36:02;;;;;;;16.65;12.88;;;;;;;;;;5021583;28;20282;-87
2021/03/25 05:38:29;;;;;;;19.88;13.82;;;;;;;;;;5030907;28;20300;-87
2021/03/25 05:41:07;;;;;;;19.10;12.70;;;;;;;;;;5030880;28;20295;-87
2021/03/25 05:44:21;;;;;;;18.35;13.35;;;;;;;;;;5015428;28;20684;-85
2021/03/25 05:46:53;;;;;;;20.98;14.05;;;;;;;;;;5014326;28;20229;-87
2021/03/25 05:49:29;;;;;;;19.35;14.13;;;;;;;;;;5014246;28;20275;-88
2021/03/25 05:52:17;;;;;;;23.23;13.45;;;;;;;;;;5014290;28;20223;-87
2021/03/25 05:54:58;;;;;;;19.58;12.48;;;;;;;;;;5013955;28;20191;-88
2021/03/25 05:57:41;;;;;;;17.35;11.95;;;;;;;;;;5015384;28;20207;-88
2021/03/25 06:00:19;;;;;;;18.25;11.25;;;;;;;;;;5008701;28;20227;-88
2021/03/25 06:02:52;;;;;;;21.25;13.35;;;;;;;;;;5017276;28;20203;-87
2021/03/25 06:05:20;;;;;;;20.60;14.45;;;;;;;;;;5016165;28;20235;-88
2021/03/25 06:08:12;;;;;;;23.38;15.05;;;;;;;;;;5017181;28;20233;-88
2021/03/25 06:10:49;;;;;;;21.48;14.45;;;;;;;;;;5015959;28;20255;-88
2021/03/25 06:13:48;;;;;;;21.48;14.15;;;;;;;;;;5017642;28;20214;-87
2021/03/25 06:17:01;;;;;;;23.05;14.25;;;;;;;;;;5016177;28;20294;-88
2021/03/25 06:20:03;;;;;;;26.52;15.05;;;;;;;;;;5016959;28;20284;-87
2021/03/25 06:22:38;;;;;;;21.88;14.15;;;;;;;;;;4955645;29;20280;-87
2021/03/25 06:25:40;;;;;;;23.83;13.02;;;;;;;;;;5007463;28;20209;-87
2021/03/25 06:28:21;;;;;;;22.65;14.23;;;;;;;;;;5016850;28;20289;-87
2021/03/25 06:31:16;;;;;;;22.05;14.98;;;;;;;;;;5016683;28;20772;-87
2021/03/25 06:33:54;;;;;;;26.80;15.15;;;;;;;;;;5017177;28;20207;-87
2021/03/25 06:36:44;;;;;;;21.88;14.85;;;;;;;;;;5016392;28;20264;-87
2021/03/25 06:39:25;;;;;;;21.45;14.40;;;;;;;;;;5016254;28;20226;-87
2021/03/25 06:42:12;;;;;;;20.10;14.52;;;;;;;;;;5015635;28;20736;-87
2021/03/25 06:44:45;;;;;;;22.75;15.77;;;;;;;;;;5016799;28;20211;-88
2021/03/25 06:47:20;;;;;;;23.45;15.82;;;;;;;;;;5015260;28;20700;-87
2021/03/25 06:49:53;;;;;;;20.50;15.18;;;;;;;;;;5017007;28;20268;-88
2021/03/25 06:52:29;;;;;;;23.05;14.75;;;;;;;;;;5016449;28;20617;-88
2021/03/25 06:55:00;;;;;;;21.77;14.07;;;;;;;;;;5016254;28;20298;-87
2021/03/25 06:57:41;;;;;;;24.02;16.48;;;;;;;;;;5015993;28;20374;-87
2021/03/25 07:00:12;;;;;;;20.73;14.55;;;;;;;;;;5014937;28;20245;-88
2021/03/25 07:02:39;;;;;;;19.95;15.30;;;;;;;;;;5014874;28;20286;-88
2021/03/25 07:05:10;;;;;;;21.38;15.10;;;;;;;;;;5013206;28;20214;-87
2021/03/25 07:07:41;;;;;;;22.67;14.32;;;;;;;;;;5013877;28;20574;-87
2021/03/25 07:10:11;;;;;;;27.02;15.88;;;;;;;;;;5013570;28;20231;-87
2021/03/25 07:12:41;;;;;;;26.05;19.10;;;;;;;;;;5013022;28;20214;-88
2021/03/25 07:15:22;;;;;;;22.75;16.10;;;;;;;;;;5006066;28;20679;-88
2021/03/25 07:17:49;;;;;;;24.98;15.95;;;;;;;;;;5014862;28;20212;-87
2021/03/25 07:20:25;;;;;;;21.33;15.27;;;;;;;;;;5021331;28;20322;-87
2021/03/25 07:23:09;;;;;;;28.15;18.20;;;;;;;;;;5021842;28;20233;-88
2021/03/25 07:25:40;;;;;;;22.52;15.65;;;;;;;;;;5020305;28;20230;-88
2021/03/25 07:28:19;;;;;;;22.73;16.20;;;;;;;;;;5024431;28;20648;-88
2021/03/25 07:30:50;;;;;;;25.20;16.15;;;;;;;;;;5024452;28;20242;-87
2021/03/25 07:33:20;;;;;;;22.45;15.35;;;;;;;;;;5022551;28;20283;-88
2021/03/25 07:35:49;;;;;;;27.90;17.05;;;;;;;;;;5016135;28;20201;-88
2021/03/25 07:38:35;;;;;;;22.05;15.30;;;;;;;;;;5016445;28;20258;-87
2021/03/25 07:41:21;;;;;;;24.63;15.60;;;;;;;;;;5015872;28;20222;-89
2021/03/25 07:43:55;;;;;;;24.35;15.48;;;;;;;;;;5015172;28;20260;-88
2021/03/25 07:46:28;;;;;;;23.85;18.45;;;;;;;;;;5015583;28;20298;-88
2021/03/25 07:49:12;;;;;;;25.42;16.63;;;;;;;;;;5015493;28;20571;-88
2021/03/25 07:51:48;;;;;;;28.95;17.90;;;;;;;;;;5014244;28;20210;-88
2021/03/25 07:54:20;;;;;;;24.55;17.13;;;;;;;;;;5008879;28;20206;-88
2021/03/25 07:57:06;;;;;;;23.70;16.23;;;;;;;;;;5014449;28;20290;-88
2021/03/25 07:59:38;;;;;;;31.17;17.38;;;;;;;;;;5017851;28;20232;-88
2021/03/25 08:02:25;;;;;;;23.58;15.65;;;;;;;;;;5018414;28;20266;-88
2021/03/25 08:04:52;;;;;;;26.80;17.70;;;;;;;;;;5017395;28;20195;-88
2021/03/25 08:07:21;;;;;;;28.27;17.90;;;;;;;;;;5016512;28;20645;-87
2021/03/25 08:09:52;;;;;;;26.55;17.80;;;;;;;;;;5017104;28;20231;-89
2021/03/25 08:12:25;;;;;;;27.30;18.30;;;;;;;;;;5016073;28;20226;-87
2021/03/25 08:15:24;;;;;;;26.42;15.40;;;;;;;;;;5015148;28;20198;-88
2021/03/25 08:18:19;;;;;;;31.65;18.05;;;;;;;;;;5017291;28;20198;-88
2021/03/25 08:20:55;;;;;;;25.48;18.00;;;;;;;;;;5016148;28;20250;-88
2021/03/25 08:24:20;;;;;;;20.60;15.27;;;;;;;;;;5014018;28;20211;-88
2021/03/25 08:27:00;;;;;;;20.00;15.35;;;;;;;;;;4934602;29;20232;-88
2021/03/25 08:29:33;;;;;;;19.05;14.77;;;;;;;;;;4934241;29;20237;-87
2021/03/25 08:32:14;;;;;;;18.23;13.68;;;;;;;;;;4984181;28;20211;-88
2021/03/25 08:35:00;;;;;;;20.48;15.55;;;;;;;;;;5013395;28;20740;-89
2021/03/25 08:38:04;;;;;;;18.55;13.93;;;;;;;;;;5013906;28;20187;-89
2021/03/25 08:40:41;;;;;;;17.02;12.65;;;;;;;;;;5013579;28;20230;-88
2021/03/25 08:43:19;;;;;;;18.70;13.85;;;;;;;;;;5013746;28;20660;-89
2021/03/25 08:45:52;;;;;;;20.92;15.10;;;;;;;;;;5013312;28;20203;-89
2021/03/25 08:48:25;;;;;;;21.40;15.25;;;;;;;;;;5013331;28;20669;-86
2021/03/25 08:51:01;;;;;;;19.20;13.68;;;;;;;;;;5013511;28;20223;-89
2021/03/25 08:53:39;;;;;;;18.15;14.35;;;;;;;;;;5013510;28;20631;-88
2021/03/25 08:56:32;;;;;;;20.45;14.68;;;;;;;;;;5013078;28;20264;-88
2021/03/25 08:59:02;;;;;;;23.83;15.00;;;;;;;;;;5013871;28;20616;-90
2021/03/25 09:01:36;;;;;;;18.10;14.32;;;;;;;;;;5022247;28;20356;-89
2021/03/25 09:04:08;;;;;;;20.20;13.90;;;;;;;;;;5017922;28;20300;-89
2021/03/25 09:06:39;;;;;;;23.25;14.77;;;;;;;;;;5013509;28;20317;-87
2021/03/25 09:09:39;;;;;;;18.77;13.48;;;;;;;;;;5012971;28;20217;-87
2021/03/25 09:12:20;;;;;;;20.50;13.77;;;;;;;;;;5012858;28;20302;-87
2021/03/25 09:14:47;;;;;;;20.70;15.05;;;;;;;;;;5013652;28;20269;-88
2021/03/25 09:17:21;;;;;;;22.90;13.63;;;;;;;;;;5012942;28;20584;-88
2021/03/25 09:19:50;;;;;;;18.45;13.57;;;;;;;;;;5029974;23;20325;-84
2021/03/25 09:22:52;;;;;;;20.65;14.50;;;;;;;;;;4995756;28;20200;-84
2021/03/25 09:25:39;;;;;;;17.88;14.70;;;;;;;;;;4934040;29;20212;-85
2021/03/25 09:28:19;;;;;;;19.33;14.27;;;;;;;;;;4933878;29;20732;-85
2021/03/25 09:31:12;;;;;;;20.02;15.27;;;;;;;;;;4975441;28;20610;-84
2021/03/25 09:33:50;;;;;;;21.17;15.50;;;;;;;;;;4994846;28;20207;-84
2021/03/25 09:36:51;;;;;;;22.20;16.80;;;;;;;;;;4994524;28;20233;-84
2021/03/25 09:39:34;;;;;;;17.88;13.85;;;;;;;;;;4994494;28;20207;-84
2021/03/25 09:42:21;;;;;;;22.92;15.88;;;;;;;;;;4994745;28;20208;-84
2021/03/25 09:44:49;;;;;;;21.02;15.63;;;;;;;;;;4994211;28;20250;-84
2021/03/25 09:47:36;;;;;;;27.15;16.23;;;;;;;;;;4994274;28;20561;-84
2021/03/25 09:50:21;;;;;;;22.45;15.10;;;;;;;;;;4992188;28;20315;-84
2021/03/25 09:53:11;;;;;;;17.38;13.60;;;;;;;;;;4993552;28;20209;-84
2021/03/25 09:55:40;;;;;;;20.40;15.02;;;;;;;;;;4993836;28;20322;-85
2021/03/25 09:58:44;;;;;;;15.73;12.77;;;;;;;;;;4993775;28;20230;-84
2021/03/25 10:01:26;;;;;;;18.88;14.75;;;;;;;;;;4994191;28;20294;-84
2021/03/25 10:04:06;;;;;;;21.27;16.45;;;;;;;;;;4993228;28;20206;-85
2021/03/25 10:07:36;;;;;;;19.23;13.90;;;;;;;;;;4993978;28;20195;-85
2021/03/25 10:10:40;;;;;;;17.13;14.02;;;;;;;;;;4914477;29;20230;-83
2021/03/25 10:13:34;;;;;;;18.70;12.35;;;;;;;;;;4914307;29;20206;-84
2021/03/25 10:16:04;;;;;;;18.08;13.63;;;;;;;;;;4993492;28;20589;-85
2021/03/25 10:18:59;;;;;;;21.23;14.13;;;;;;;;;;4993921;28;20311;-84
2021/03/25 10:22:03;;;;;;;18.50;13.50;;;;;;;;;;4993622;28;20239;-85
2021/03/25 10:24:39;;;;;;;14.98;11.70;;;;;;;;;;4995307;28;20195;-84
2021/03/25 10:27:36;;;;;;;17.75;12.82;;;;;;;;;;4993990;28;20199;-85
2021/03/25 10:30:23;;;;;;;21.88;15.73;;;;;;;;;;4986934;28;20228;-86
2021/03/25 10:32:52;;;;;;;22.90;16.58;;;;;;;;;;4994424;28;20184;-85
2021/03/25 10:35:26;;;;;;;20.52;14.40;;;;;;;;;;4994403;28;20218;-85
2021/03/25 10:37:56;;;;;;;18.65;13.68;;;;;;;;;;4993689;28;20307;-84
2021/03/25 10:40:34;;;;;;;19.33;13.75;;;;;;;;;;4994696;28;20749;-86
2021/03/25 10:43:04;;;;;;;19.45;14.13;;;;;;;;;;4994081;28;20209;-86
2021/03/25 10:45:48;;;;;;;20.05;15.13;;;;;;;;;;4995323;28;20192;-86
2021/03/25 10:48:30;;;;;;;26.15;17.42;;;;;;;;;;5006317;28;20200;-85
2021/03/25 10:51:02;;;;;;;25.65;17.30;;;;;;;;;;5005352;28;20294;-86
2021/03/25 10:53:37;;;;;;;20.98;13.70;;;;;;;;;;4996279;28;20283;-84
2021/03/25 10:56:21;;;;;;;21.83;14.85;;;;;;;;;;4993384;28;20183;-85
2021/03/25 10:58:59;;;;;;;21.00;14.80;;;;;;;;;;4991874;28;20227;-83
2021/03/25 11:01:29;;;;;;;22.08;14.95;;;;;;;;;;4992459;28;20219;-86
2021/03/25 11:03:58;;;;;;;22.45;13.98;;;;;;;;;;4992903;28;20192;-85
2021/03/25 11:06:32;;;;;;;19.67;12.82;;;;;;;;;;4992709;28;20278;-85
2021/03/25 11:09:07;;;;;;;18.15;11.65;;;;;;;;;;4993580;28;20191;-87
2021/03/25 11:11:37;;;;;;;22.25;13.05;;;;;;;;;;4992284;28;20245;-87
2021/03/25 11:14:11;;;;;;;22.85;13.85;;;;;;;;;;4992484;28;20288;-86
2021/03/25 11:16:38;;;;;;;19.38;12.88;;;;;;;;;;4991827;28;20298;-86
2021/03/25 11:19:09;;;;;;;23.02;13.30;;;;;;;;;;4992515;28;20284;-86
2021/03/25 11:21:39;;;;;;;20.67;12.93;;;;;;;;;;4973081;28;20254;-85
2021/03/25 11:24:15;;;;;;;21.70;12.55;;;;;;;;;;4973083;28;20870;-86
2021/03/25 11:26:42;;;;;;;17.35;12.23;;;;;;;;;;4973402;28;20184;-87
2021/03/25 11:29:14;;;;;;;21.05;12.57;;;;;;;;;;4972262;28;20244;-87
2021/03/25 11:31:45;;;;;;;20.13;12.40;;;;;;;;;;4972793;28;20611;-87
2021/03/25 11:34:26;;;;;;;17.40;12.32;;;;;;;;;;4971989;28;20655;-85
2021/03/25 11:36:53;;;;;;;18.83;13.35;;;;;;;;;;4972683;28;20181;-87
2021/03/25 11:39:26;;;;;;;16.80;12.25;;;;;;;;;;4972906;28;20192;-86
2021/03/25 11:41:56;;;;;;;20.67;13.20;;;;;;;;;;4972743;28;20211;-88
2021/03/25 11:44:42;;;;;;;25.05;16.25;;;;;;;;;;4972932;28;20287;-87
2021/03/25 11:47:45;;;;;;;22.70;14.52;;;;;;;;;;4972288;28;20210;-86
2021/03/25 11:50:37;;;;;;;21.58;13.80;;;;;;;;;;4972924;28;20227;-86
2021/03/25 11:53:07;;;;;;;22.52;14.88;;;;;;;;;;4972437;28;20711;-86
2021/03/25 11:55:42;;;;;;;21.33;13.95;;;;;;;;;;4972350;28;20610;-86
2021/03/25 11:58:18;;;;;;;21.25;13.52;;;;;;;;;;4972189;28;20219;-86
2021/03/25 12:01:15;;;;;;;19.60;13.02;;;;;;;;;;4973357;28;20222;-87
2021/03/25 12:03:50;;;;;;;23.60;14.60;;;;;;;;;;4972856;28;20680;-87
2021/03/25 12:06:21;;;;;;;21.83;14.60;;;;;;;;;;4972547;28;20861;-87
2021/03/25 12:08:48;;;;;;;29.60;17.25;;;;;;;;;;4972576;28;20250;-85
2021/03/25 12:11:16;;;;;;;22.20;15.85;;;;;;;;;;4971649;28;20231;-86
2021/03/25 12:13:44;;;;;;;22.58;13.43;;;;;;;;;;4972407;28;20642;-86
2021/03/25 12:16:12;;;;;;;25.75;15.40;;;;;;;;;;4971334;28;20681;-86
2021/03/25 12:18:44;;;;;;;21.73;13.00;;;;;;;;;;4974495;28;20221;-87
2021/03/25 12:21:12;;;;;;;22.27;15.30;;;;;;;;;;4988419;28;20236;-86
2021/03/25 12:23:43;;;;;;;19.02;13.52;;;;;;;;;;4991960;28;20223;-87
2021/03/25 12:26:14;;;;;;;25.45;16.85;;;;;;;;;;4990831;28;20662;-87
2021/03/25 12:28:42;;;;;;;19.75;14.63;;;;;;;;;;4991866;28;20196;-87
2021/03/25 12:31:10;;;;;;;22.98;15.55;;;;;;;;;;4990861;28;20311;-87
2021/03/25 12:33:38;;;;;;;23.55;15.02;;;;;;;;;;4992350;28;20291;-88
2021/03/25 12:36:08;;;;;;;19.48;12.90;;;;;;;;;;4991519;28;20279;-87
2021/03/25 12:38:36;;;;;;;25.45;14.63;;;;;;;;;;4991871;28;20216;-87
2021/03/25 12:41:04;;;;;;;21.48;16.05;;;;;;;;;;4992378;28;20219;-86
2021/03/25 12:43:33;;;;;;;23.48;15.68;;;;;;;;;;4989949;28;20199;-86
2021/03/25 12:46:04;;;;;;;20.67;13.90;;;;;;;;;;4995497;28;20202;-86
2021/03/25 12:48:33;;;;;;;15.15;11.82;;;;;;;;;;4996639;28;20211;-86
2021/03/25 12:51:02;;;;;;;20.35;13.55;;;;;;;;;;4996307;28;20307;-86
2021/03/25 12:53:33;;;;;;;19.15;14.27;;;;;;;;;;4996655;28;20674;-87
2021/03/25 12:56:01;;;;;;;20.58;14.88;;;;;;;;;;4996728;28;20199;-86
2021/03/25 12:58:34;;;;;;;25.92;16.52;;;;;;;;;;4997143;28;20204;-87
2021/03/25 13:01:07;;;;;;;18.60;13.70;;;;;;;;;;4996298;28;20303;-85
2021/03/25 13:03:36;;;;;;;20.10;14.25;;;;;;;;;;4976267;28;20189;-86
2021/03/25 13:06:05;;;;;;;19.58;14.52;;;;;;;;;;4974884;28;20288;-85
2021/03/25 13:08:33;;;;;;;19.65;14.48;;;;;;;;;;4975083;28;20213;-86
2021/03/25 13:11:00;;;;;;;21.60;15.45;;;;;;;;;;4975437;28;20226;-86
2021/03/25 13:13:28;;;;;;;19.73;14.10;;;;;;;;;;4993638;28;20280;-85
2021/03/25 13:15:55;;;;;;;17.77;13.15;;;;;;;;;;4993897;28;21499;-85
2021/03/25 13:18:22;;;;;;;17.38;13.05;;;;;;;;;;4993447;28;20226;-86
2021/03/25 13:20:53;;;;;;;19.30;13.05;;;;;;;;;;4994191;28;20253;-85
2021/03/25 13:23:23;;;;;;;20.13;15.43;;;;;;;;;;4995552;28;20200;-85
2021/03/25 13:25:51;;;;;;;20.08;13.70;;;;;;;;;;4995444;28;20286;-85
2021/03/25 13:28:19;;;;;;;20.02;15.48;;;;;;;;;;4995271;28;20184;-84
2021/03/25 13:30:51;;;;;;;17.98;14.38;;;;;;;;;;4994575;28;20628;-86
2021/03/25 13:33:20;;;;;;;17.30;12.48;;;;;;;;;;4992761;28;20191;-86
2021/03/25 13:35:49;;;;;;;20.75;13.40;;;;;;;;;;4995155;28;20279;-86
2021/03/25 13:38:17;;;;;;;25.90;14.23;;;;;;;;;;4994933;28;20210;-86
2021/03/25 13:40:45;;;;;;;17.50;14.43;;;;;;;;;;4994995;28;20298;-86
2021/03/25 13:43:15;;;;;;;16.67;13.93;;;;;;;;;;4995383;28;20200;-86
2021/03/25 13:45:42;;;;;;;17.92;13.20;;;;;;;;;;4994704;28;20206;-86
2021/03/25 13:48:11;;;;;;;19.25;14.52;;;;;;;;;;4994018;28;20204;-86
2021/03/25 13:50:38;;;;;;;17.30;13.90;;;;;;;;;;4994392;28;20335;-86
2021/03/25 13:53:06;;;;;;;19.98;15.13;;;;;;;;;;4993830;28;20210;-86
2021/03/25 13:55:36;;;;;;;19.73;14.38;;;;;;;;;;4993173;28;20210;-86
2021/03/25 13:58:03;;;;;;;20.52;14.75;;;;;;;;;;4994766;28;20717;-86
2021/03/25 14:00:31;;;;;;;21.52;15.60;;;;;;;;;;4995877;28;20630;-85
2021/03/25 14:02:59;;;;;;;19.90;14.77;;;;;;;;;;4998391;28;20184;-85
2021/03/25 14:05:30;;;;;;;20.45;14.65;;;;;;;;;;4996291;28;20546;-85
2021/03/25 14:07:58;;;;;;;20.70;14.40;;;;;;;;;;4991420;28;20704;-85
2021/03/25 14:10:26;;;;;;;17.98;13.18;;;;;;;;;;4991983;28;20235;-85
2021/03/25 14:12:54;;;;;;;18.88;14.55;;;;;;;;;;4991558;28;20219;-85
2021/03/25 14:15:24;;;;;;;18.23;13.75;;;;;;;;;;4972757;28;20215;-86
2021/03/25 14:17:52;;;;;;;20.15;14.40;;;;;;;;;;4973002;28;20643;-85
2021/03/25 14:20:22;;;;;;;19.40;14.57;;;;;;;;;;4972497;28;20243;-85
2021/03/25 14:22:50;;;;;;;19.92;14.10;;;;;;;;;;4973235;28;20189;-86
2021/03/25 14:25:23;;;;;;;21.60;16.23;;;;;;;;;;4972876;28;20236;-85
2021/03/25 14:27:50;;;;;;;21.27;15.10;;;;;;;;;;4973282;28;20208;-85
2021/03/25 14:30:20;;;;;;;19.98;13.93;;;;;;;;;;4972490;28;20236;-85
2021/03/25 14:32:47;;;;;;;19.25;13.38;;;;;;;;;;4974113;28;20208;-85
2021/03/25 14:35:15;;;;;;;15.63;12.40;;;;;;;;;;4972848;28;20200;-85
2021/03/25 14:37:42;;;;;;;18.05;13.30;;;;;;;;;;4973024;28;20208;-87
2021/03/25 14:40:12;;;;;;;22.63;14.57;;;;;;;;;;4973382;28;20232;-85
2021/03/25 14:42:39;;;;;;;17.23;13.23;;;;;;;;;;4973121;28;20189;-85
2021/03/25 14:45:08;;;;;;;21.27;13.43;;;;;;;;;;4972387;28;20568;-85
2021/03/25 14:47:35;;;;;;;17.10;12.95;;;;;;;;;;4972657;28;20201;-85
2021/03/25 14:50:03;;;;;;;21.00;13.38;;;;;;;;;;4972305;28;20315;-86
2021/03/25 14:52:30;;;;;;;18.23;12.45;;;;;;;;;;4972335;28;20203;-85
2021/03/25 14:54:57;;;;;;;15.95;11.93;;;;;;;;;;4972212;28;20236;-87
2021/03/25 14:57:25;;;;;;;18.05;13.70;;;;;;;;;;4972549;28;20191;-86
2021/03/25 14:59:52;;;;;;;22.20;14.55;;;;;;;;;;4972208;28;20657;-86
2021/03/25 15:02:20;;;;;;;16.50;12.60;;;;;;;;;;4972283;28;20279;-86